sensor_id;sensor_type;location;lat;lon;timestamp;P1;durP1;ratioP1;P2;durP2;ratioP2
26656;SDS011;14279;50.010;8.260;2022-10-20T00:00:56;16.47;;;6.77;;
26656;SDS011;14279;50.010;8.260;2022-10-20T00:03:22;12.00;;;7.30;;
26656;SDS011;14279;50.010;8.260;2022-10-20T00:05:48;7.17;;;5.70;;
26656;SDS011;14279;50.010;8.260;2022-10-20T00:08:13;17.13;;;7.40;;
26656;SDS011;14279;50.010;8.260;2022-10-20T00:10:39;9.30;;;6.17;;
26656;SDS011;14279;50.010;8.260;2022-10-20T00:13:04;12.73;;;6.70;;
26656;SDS011;14279;50.010;8.260;2022-10-20T00:15:30;18.00;;;7.17;;
26656;SDS011;14279;50.010;8.260;2022-10-20T00:17:55;7.93;;;6.30;;
26656;SDS011;14279;50.010;8.260;2022-10-20T00:20:20;10.97;;;6.10;;
26656;SDS011;14279;50.010;8.260;2022-10-20T00:22:46;29.03;;;5.53;;
26656;SDS011;14279;50.010;8.260;2022-10-20T00:25:11;13.73;;;6.10;;
26656;SDS011;14279;50.010;8.260;2022-10-20T00:27:36;6.73;;;5.53;;
26656;SDS011;14279;50.010;8.260;2022-10-20T00:30:02;10.20;;;5.70;;
26656;SDS011;14279;50.010;8.260;2022-10-20T00:32:27;11.03;;;5.57;;
26656;SDS011;14279;50.010;8.260;2022-10-20T00:34:54;14.27;;;6.20;;
26656;SDS011;14279;50.010;8.260;2022-10-20T00:37:19;16.27;;;6.13;;
26656;SDS011;14279;50.010;8.260;2022-10-20T00:39:44;17.37;;;6.03;;
26656;SDS011;14279;50.010;8.260;2022-10-20T00:42:13;15.83;;;6.10;;
26656;SDS011;14279;50.010;8.260;2022-10-20T00:47:17;9.37;;;5.27;;
26656;SDS011;14279;50.010;8.260;2022-10-20T00:49:46;16.40;;;5.80;;
26656;SDS011;14279;50.010;8.260;2022-10-20T00:52:14;17.80;;;6.00;;
26656;SDS011;14279;50.010;8.260;2022-10-20T00:54:42;12.27;;;5.80;;
26656;SDS011;14279;50.010;8.260;2022-10-20T00:57:08;10.00;;;6.10;;
26656;SDS011;14279;50.010;8.260;2022-10-20T00:59:34;17.00;;;6.10;;
26656;SDS011;14279;50.010;8.260;2022-10-20T01:02:01;12.23;;;6.03;;
26656;SDS011;14279;50.010;8.260;2022-10-20T01:04:29;8.20;;;5.53;;
26656;SDS011;14279;50.010;8.260;2022-10-20T01:06:55;11.23;;;5.00;;
26656;SDS011;14279;50.010;8.260;2022-10-20T01:09:21;10.00;;;5.57;;
26656;SDS011;14279;50.010;8.260;2022-10-20T01:23:06;10.60;;;5.93;;
26656;SDS011;14279;50.010;8.260;2022-10-20T01:28:56;13.03;;;5.63;;
26656;SDS011;14279;50.010;8.260;2022-10-20T01:31:41;20.00;;;6.50;;
26656;SDS011;14279;50.010;8.260;2022-10-20T01:37:04;13.00;;;5.47;;
26656;SDS011;14279;50.010;8.260;2022-10-20T01:39:43;13.00;;;6.10;;
26656;SDS011;14279;50.010;8.260;2022-10-20T01:42:14;13.40;;;5.97;;
26656;SDS011;14279;50.010;8.260;2022-10-20T01:44:44;12.37;;;6.00;;
26656;SDS011;14279;50.010;8.260;2022-10-20T01:47:12;8.63;;;5.73;;
26656;SDS011;14279;50.010;8.260;2022-10-20T01:49:41;7.80;;;5.67;;
26656;SDS011;14279;50.010;8.260;2022-10-20T01:52:09;9.60;;;5.33;;
26656;SDS011;14279;50.010;8.260;2022-10-20T01:54:35;12.60;;;5.57;;
26656;SDS011;14279;50.010;8.260;2022-10-20T01:59:53;6.70;;;5.23;;
26656;SDS011;14279;50.010;8.260;2022-10-20T02:02:22;8.17;;;5.40;;
26656;SDS011;14279;50.010;8.260;2022-10-20T02:07:45;7.63;;;4.90;;
26656;SDS011;14279;50.010;8.260;2022-10-20T02:12:46;9.33;;;5.47;;
26656;SDS011;14279;50.010;8.260;2022-10-20T02:15:16;13.50;;;6.17;;
26656;SDS011;14279;50.010;8.260;2022-10-20T02:17:47;9.83;;;5.93;;
26656;SDS011;14279;50.010;8.260;2022-10-20T02:20:15;8.77;;;6.97;;
26656;SDS011;14279;50.010;8.260;2022-10-20T02:22:41;7.87;;;5.40;;
26656;SDS011;14279;50.010;8.260;2022-10-20T02:25:08;12.53;;;5.60;;
26656;SDS011;14279;50.010;8.260;2022-10-20T02:27:36;12.20;;;5.63;;
26656;SDS011;14279;50.010;8.260;2022-10-20T02:30:15;12.27;;;6.37;;
26656;SDS011;14279;50.010;8.260;2022-10-20T02:32:42;10.57;;;5.60;;
26656;SDS011;14279;50.010;8.260;2022-10-20T02:35:13;11.90;;;5.30;;
26656;SDS011;14279;50.010;8.260;2022-10-20T02:37:41;13.83;;;6.07;;
26656;SDS011;14279;50.010;8.260;2022-10-20T02:40:07;7.90;;;5.77;;
26656;SDS011;14279;50.010;8.260;2022-10-20T02:42:32;10.23;;;5.57;;
26656;SDS011;14279;50.010;8.260;2022-10-20T02:44:58;18.60;;;5.57;;
26656;SDS011;14279;50.010;8.260;2022-10-20T02:47:23;8.20;;;5.50;;
26656;SDS011;14279;50.010;8.260;2022-10-20T02:49:48;8.57;;;5.33;;
26656;SDS011;14279;50.010;8.260;2022-10-20T02:52:14;7.33;;;5.87;;
26656;SDS011;14279;50.010;8.260;2022-10-20T02:54:39;11.53;;;6.23;;
26656;SDS011;14279;50.010;8.260;2022-10-20T02:57:04;10.27;;;5.73;;
26656;SDS011;14279;50.010;8.260;2022-10-20T02:59:30;9.90;;;5.97;;
26656;SDS011;14279;50.010;8.260;2022-10-20T03:01:55;9.03;;;5.40;;
26656;SDS011;14279;50.010;8.260;2022-10-20T03:04:20;12.13;;;6.30;;
26656;SDS011;14279;50.010;8.260;2022-10-20T03:06:46;9.77;;;6.60;;
26656;SDS011;14279;50.010;8.260;2022-10-20T03:09:11;11.93;;;6.53;;
26656;SDS011;14279;50.010;8.260;2022-10-20T03:11:37;14.77;;;6.97;;
26656;SDS011;14279;50.010;8.260;2022-10-20T03:14:02;10.03;;;5.63;;
26656;SDS011;14279;50.010;8.260;2022-10-20T03:16:27;9.53;;;5.80;;
26656;SDS011;14279;50.010;8.260;2022-10-20T03:18:53;9.33;;;5.70;;
26656;SDS011;14279;50.010;8.260;2022-10-20T03:21:18;10.50;;;5.67;;
26656;SDS011;14279;50.010;8.260;2022-10-20T03:23:43;13.33;;;5.40;;
26656;SDS011;14279;50.010;8.260;2022-10-20T03:26:09;7.17;;;5.97;;
26656;SDS011;14279;50.010;8.260;2022-10-20T03:28:36;12.63;;;6.90;;
26656;SDS011;14279;50.010;8.260;2022-10-20T03:31:02;11.17;;;6.70;;
26656;SDS011;14279;50.010;8.260;2022-10-20T03:33:28;9.27;;;6.17;;
26656;SDS011;14279;50.010;8.260;2022-10-20T03:35:54;16.50;;;8.30;;
26656;SDS011;14279;50.010;8.260;2022-10-20T03:38:19;10.83;;;6.40;;
26656;SDS011;14279;50.010;8.260;2022-10-20T03:40:44;11.87;;;7.90;;
26656;SDS011;14279;50.010;8.260;2022-10-20T03:43:09;7.30;;;5.43;;
26656;SDS011;14279;50.010;8.260;2022-10-20T03:45:35;13.53;;;7.40;;
26656;SDS011;14279;50.010;8.260;2022-10-20T03:48:00;30.27;;;14.37;;
26656;SDS011;14279;50.010;8.260;2022-10-20T03:50:26;9.53;;;5.57;;
26656;SDS011;14279;50.010;8.260;2022-10-20T03:52:51;10.00;;;6.77;;
26656;SDS011;14279;50.010;8.260;2022-10-20T03:55:17;11.07;;;6.53;;
26656;SDS011;14279;50.010;8.260;2022-10-20T03:57:43;9.33;;;6.00;;
26656;SDS011;14279;50.010;8.260;2022-10-20T04:00:08;11.90;;;7.17;;
26656;SDS011;14279;50.010;8.260;2022-10-20T04:02:38;20.47;;;6.30;;
26656;SDS011;14279;50.010;8.260;2022-10-20T04:05:06;8.70;;;6.50;;
26656;SDS011;14279;50.010;8.260;2022-10-20T04:07:32;14.30;;;7.10;;
26656;SDS011;14279;50.010;8.260;2022-10-20T04:09:57;10.17;;;7.80;;
26656;SDS011;14279;50.010;8.260;2022-10-20T04:12:26;13.90;;;7.60;;
26656;SDS011;14279;50.010;8.260;2022-10-20T04:14:51;15.03;;;6.47;;
26656;SDS011;14279;50.010;8.260;2022-10-20T04:17:16;10.20;;;6.40;;
26656;SDS011;14279;50.010;8.260;2022-10-20T04:19:41;11.23;;;5.67;;
26656;SDS011;14279;50.010;8.260;2022-10-20T04:22:07;7.37;;;6.23;;
26656;SDS011;14279;50.010;8.260;2022-10-20T04:24:32;13.40;;;6.87;;
26656;SDS011;14279;50.010;8.260;2022-10-20T04:26:57;11.27;;;6.83;;
26656;SDS011;14279;50.010;8.260;2022-10-20T04:29:22;12.40;;;6.27;;
26656;SDS011;14279;50.010;8.260;2022-10-20T04:31:48;19.50;;;6.23;;
26656;SDS011;14279;50.010;8.260;2022-10-20T04:34:13;9.13;;;6.80;;
26656;SDS011;14279;50.010;8.260;2022-10-20T04:36:38;11.90;;;6.60;;
26656;SDS011;14279;50.010;8.260;2022-10-20T04:39:04;9.27;;;5.90;;
26656;SDS011;14279;50.010;8.260;2022-10-20T04:41:30;12.13;;;6.43;;
26656;SDS011;14279;50.010;8.260;2022-10-20T04:43:55;8.53;;;5.70;;
26656;SDS011;14279;50.010;8.260;2022-10-20T04:46:21;10.17;;;6.60;;
26656;SDS011;14279;50.010;8.260;2022-10-20T04:48:46;15.03;;;6.60;;
26656;SDS011;14279;50.010;8.260;2022-10-20T04:51:12;9.53;;;6.27;;
26656;SDS011;14279;50.010;8.260;2022-10-20T04:53:40;7.40;;;6.03;;
26656;SDS011;14279;50.010;8.260;2022-10-20T04:56:06;10.83;;;6.47;;
26656;SDS011;14279;50.010;8.260;2022-10-20T04:58:33;9.77;;;6.10;;
26656;SDS011;14279;50.010;8.260;2022-10-20T05:01:08;7.00;;;6.30;;
26656;SDS011;14279;50.010;8.260;2022-10-20T05:03:34;10.87;;;7.40;;
26656;SDS011;14279;50.010;8.260;2022-10-20T05:06:13;10.20;;;7.33;;
26656;SDS011;14279;50.010;8.260;2022-10-20T05:08:45;11.93;;;7.10;;
26656;SDS011;14279;50.010;8.260;2022-10-20T05:11:12;18.27;;;6.13;;
26656;SDS011;14279;50.010;8.260;2022-10-20T05:13:38;15.93;;;6.97;;
26656;SDS011;14279;50.010;8.260;2022-10-20T05:16:03;13.63;;;7.47;;
26656;SDS011;14279;50.010;8.260;2022-10-20T05:18:29;7.70;;;6.67;;
26656;SDS011;14279;50.010;8.260;2022-10-20T05:20:55;17.10;;;7.47;;
26656;SDS011;14279;50.010;8.260;2022-10-20T05:23:20;19.83;;;6.90;;
26656;SDS011;14279;50.010;8.260;2022-10-20T05:25:46;13.53;;;6.87;;
26656;SDS011;14279;50.010;8.260;2022-10-20T05:28:11;12.20;;;7.37;;
26656;SDS011;14279;50.010;8.260;2022-10-20T05:30:37;10.63;;;7.30;;
26656;SDS011;14279;50.010;8.260;2022-10-20T05:33:02;21.73;;;7.83;;
26656;SDS011;14279;50.010;8.260;2022-10-20T05:35:28;15.13;;;7.80;;
26656;SDS011;14279;50.010;8.260;2022-10-20T05:37:54;14.20;;;7.27;;
26656;SDS011;14279;50.010;8.260;2022-10-20T05:40:19;15.07;;;7.60;;
26656;SDS011;14279;50.010;8.260;2022-10-20T05:42:45;13.73;;;7.43;;
26656;SDS011;14279;50.010;8.260;2022-10-20T05:45:10;9.23;;;7.43;;
26656;SDS011;14279;50.010;8.260;2022-10-20T05:47:36;14.57;;;8.30;;
26656;SDS011;14279;50.010;8.260;2022-10-20T05:50:01;11.97;;;7.50;;
26656;SDS011;14279;50.010;8.260;2022-10-20T05:52:27;14.00;;;7.67;;
26656;SDS011;14279;50.010;8.260;2022-10-20T05:54:52;17.17;;;8.87;;
26656;SDS011;14279;50.010;8.260;2022-10-20T05:57:18;12.07;;;8.00;;
26656;SDS011;14279;50.010;8.260;2022-10-20T05:59:43;15.93;;;8.10;;
26656;SDS011;14279;50.010;8.260;2022-10-20T06:02:09;11.83;;;7.97;;
26656;SDS011;14279;50.010;8.260;2022-10-20T06:04:35;13.13;;;8.17;;
26656;SDS011;14279;50.010;8.260;2022-10-20T06:07:01;24.67;;;8.90;;
26656;SDS011;14279;50.010;8.260;2022-10-20T06:09:26;19.60;;;8.60;;
26656;SDS011;14279;50.010;8.260;2022-10-20T06:11:52;19.43;;;8.40;;
26656;SDS011;14279;50.010;8.260;2022-10-20T06:14:17;11.10;;;8.03;;
26656;SDS011;14279;50.010;8.260;2022-10-20T06:16:43;11.23;;;8.70;;
26656;SDS011;14279;50.010;8.260;2022-10-20T06:19:08;19.20;;;8.53;;
26656;SDS011;14279;50.010;8.260;2022-10-20T06:21:35;15.67;;;8.37;;
26656;SDS011;14279;50.010;8.260;2022-10-20T06:24:02;20.53;;;8.20;;
26656;SDS011;14279;50.010;8.260;2022-10-20T06:26:29;10.67;;;8.50;;
26656;SDS011;14279;50.010;8.260;2022-10-20T06:29:00;13.37;;;8.20;;
26656;SDS011;14279;50.010;8.260;2022-10-20T06:31:45;13.63;;;8.33;;
26656;SDS011;14279;50.010;8.260;2022-10-20T06:34:27;13.93;;;8.53;;
26656;SDS011;14279;50.010;8.260;2022-10-20T06:36:53;12.97;;;9.20;;
26656;SDS011;14279;50.010;8.260;2022-10-20T06:39:19;15.33;;;8.77;;
26656;SDS011;14279;50.010;8.260;2022-10-20T06:41:47;15.53;;;10.07;;
26656;SDS011;14279;50.010;8.260;2022-10-20T06:44:17;13.00;;;8.87;;
26656;SDS011;14279;50.010;8.260;2022-10-20T06:46:43;18.70;;;10.23;;
26656;SDS011;14279;50.010;8.260;2022-10-20T06:49:11;16.37;;;9.57;;
26656;SDS011;14279;50.010;8.260;2022-10-20T06:51:37;14.60;;;9.93;;
26656;SDS011;14279;50.010;8.260;2022-10-20T06:54:03;11.47;;;9.53;;
26656;SDS011;14279;50.010;8.260;2022-10-20T06:56:30;13.53;;;9.40;;
26656;SDS011;14279;50.010;8.260;2022-10-20T06:58:58;16.23;;;9.90;;
26656;SDS011;14279;50.010;8.260;2022-10-20T07:01:25;15.80;;;10.10;;
26656;SDS011;14279;50.010;8.260;2022-10-20T07:04:14;17.03;;;9.90;;
26656;SDS011;14279;50.010;8.260;2022-10-20T07:06:41;12.57;;;9.57;;
26656;SDS011;14279;50.010;8.260;2022-10-20T07:09:10;16.87;;;9.67;;
26656;SDS011;14279;50.010;8.260;2022-10-20T07:11:37;18.20;;;10.00;;
26656;SDS011;14279;50.010;8.260;2022-10-20T07:14:03;17.33;;;10.83;;
26656;SDS011;14279;50.010;8.260;2022-10-20T07:16:30;15.57;;;11.13;;
26656;SDS011;14279;50.010;8.260;2022-10-20T07:19:07;15.03;;;10.97;;
26656;SDS011;14279;50.010;8.260;2022-10-20T07:21:33;17.07;;;11.37;;
26656;SDS011;14279;50.010;8.260;2022-10-20T07:24:00;20.27;;;11.50;;
26656;SDS011;14279;50.010;8.260;2022-10-20T07:26:28;17.33;;;11.73;;
26656;SDS011;14279;50.010;8.260;2022-10-20T07:28:56;21.80;;;14.10;;
26656;SDS011;14279;50.010;8.260;2022-10-20T07:31:23;21.50;;;12.63;;
26656;SDS011;14279;50.010;8.260;2022-10-20T07:33:51;25.73;;;12.40;;
26656;SDS011;14279;50.010;8.260;2022-10-20T07:36:18;17.50;;;12.40;;
26656;SDS011;14279;50.010;8.260;2022-10-20T07:38:49;19.13;;;11.70;;
26656;SDS011;14279;50.010;8.260;2022-10-20T07:41:16;22.10;;;13.23;;
26656;SDS011;14279;50.010;8.260;2022-10-20T07:43:42;20.53;;;13.20;;
26656;SDS011;14279;50.010;8.260;2022-10-20T07:46:08;20.83;;;12.23;;
26656;SDS011;14279;50.010;8.260;2022-10-20T07:48:34;23.13;;;12.83;;
26656;SDS011;14279;50.010;8.260;2022-10-20T07:53:56;30.93;;;14.57;;
26656;SDS011;14279;50.010;8.260;2022-10-20T07:56:52;18.43;;;12.20;;
26656;SDS011;14279;50.010;8.260;2022-10-20T07:59:20;23.13;;;13.57;;
26656;SDS011;14279;50.010;8.260;2022-10-20T08:01:46;19.50;;;13.40;;
26656;SDS011;14279;50.010;8.260;2022-10-20T08:04:11;19.60;;;13.23;;
26656;SDS011;14279;50.010;8.260;2022-10-20T08:06:36;20.90;;;14.27;;
26656;SDS011;14279;50.010;8.260;2022-10-20T08:09:02;21.20;;;14.43;;
26656;SDS011;14279;50.010;8.260;2022-10-20T08:11:28;24.60;;;15.50;;
26656;SDS011;14279;50.010;8.260;2022-10-20T08:13:53;21.40;;;13.13;;
26656;SDS011;14279;50.010;8.260;2022-10-20T08:16:18;24.13;;;13.83;;
26656;SDS011;14279;50.010;8.260;2022-10-20T08:18:44;23.93;;;15.03;;
26656;SDS011;14279;50.010;8.260;2022-10-20T08:21:13;37.67;;;13.77;;
26656;SDS011;14279;50.010;8.260;2022-10-20T08:23:41;20.50;;;14.10;;
26656;SDS011;14279;50.010;8.260;2022-10-20T08:26:08;22.00;;;15.03;;
26656;SDS011;14279;50.010;8.260;2022-10-20T08:28:34;19.73;;;14.33;;
26656;SDS011;14279;50.010;8.260;2022-10-20T08:31:00;20.43;;;14.30;;
26656;SDS011;14279;50.010;8.260;2022-10-20T08:33:27;21.90;;;12.93;;
26656;SDS011;14279;50.010;8.260;2022-10-20T08:35:52;23.00;;;14.40;;
26656;SDS011;14279;50.010;8.260;2022-10-20T08:38:17;23.27;;;14.70;;
26656;SDS011;14279;50.010;8.260;2022-10-20T08:40:43;25.00;;;14.23;;
26656;SDS011;14279;50.010;8.260;2022-10-20T08:43:17;20.77;;;14.90;;
26656;SDS011;14279;50.010;8.260;2022-10-20T08:45:43;21.30;;;14.40;;
26656;SDS011;14279;50.010;8.260;2022-10-20T08:48:11;25.17;;;14.47;;
26656;SDS011;14279;50.010;8.260;2022-10-20T08:50:43;22.27;;;14.60;;
26656;SDS011;14279;50.010;8.260;2022-10-20T08:53:10;28.03;;;13.90;;
26656;SDS011;14279;50.010;8.260;2022-10-20T08:55:37;20.80;;;13.77;;
26656;SDS011;14279;50.010;8.260;2022-10-20T08:58:09;26.70;;;14.60;;
26656;SDS011;14279;50.010;8.260;2022-10-20T09:00:38;22.47;;;13.50;;
26656;SDS011;14279;50.010;8.260;2022-10-20T09:03:15;20.07;;;13.40;;
26656;SDS011;14279;50.010;8.260;2022-10-20T09:05:42;22.17;;;14.20;;
26656;SDS011;14279;50.010;8.260;2022-10-20T09:08:11;32.30;;;16.27;;
26656;SDS011;14279;50.010;8.260;2022-10-20T09:10:37;19.73;;;13.00;;
26656;SDS011;14279;50.010;8.260;2022-10-20T09:13:07;22.30;;;15.20;;
26656;SDS011;14279;50.010;8.260;2022-10-20T09:15:44;25.33;;;14.80;;
26656;SDS011;14279;50.010;8.260;2022-10-20T09:18:12;20.70;;;13.63;;
26656;SDS011;14279;50.010;8.260;2022-10-20T09:20:41;22.20;;;15.17;;
26656;SDS011;14279;50.010;8.260;2022-10-20T09:23:21;21.37;;;15.63;;
26656;SDS011;14279;50.010;8.260;2022-10-20T09:25:51;23.77;;;14.40;;
26656;SDS011;14279;50.010;8.260;2022-10-20T09:28:24;23.13;;;14.07;;
26656;SDS011;14279;50.010;8.260;2022-10-20T09:30:51;30.03;;;18.63;;
26656;SDS011;14279;50.010;8.260;2022-10-20T09:35:52;28.17;;;16.10;;
26656;SDS011;14279;50.010;8.260;2022-10-20T09:38:21;33.37;;;17.70;;
26656;SDS011;14279;50.010;8.260;2022-10-20T09:46:26;21.37;;;14.23;;
26656;SDS011;14279;50.010;8.260;2022-10-20T09:48:54;23.57;;;14.17;;
26656;SDS011;14279;50.010;8.260;2022-10-20T09:51:21;25.33;;;13.10;;
26656;SDS011;14279;50.010;8.260;2022-10-20T09:53:50;27.83;;;13.40;;
26656;SDS011;14279;50.010;8.260;2022-10-20T09:59:02;21.10;;;13.47;;
26656;SDS011;14279;50.010;8.260;2022-10-20T10:01:31;23.73;;;14.87;;
26656;SDS011;14279;50.010;8.260;2022-10-20T10:03:57;31.67;;;15.20;;
26656;SDS011;14279;50.010;8.260;2022-10-20T10:09:20;27.53;;;14.27;;
26656;SDS011;14279;50.010;8.260;2022-10-20T10:11:55;23.10;;;13.90;;
26656;SDS011;14279;50.010;8.260;2022-10-20T10:14:23;18.93;;;13.80;;
26656;SDS011;14279;50.010;8.260;2022-10-20T10:16:48;27.10;;;13.67;;
26656;SDS011;14279;50.010;8.260;2022-10-20T10:19:15;30.40;;;13.60;;
26656;SDS011;14279;50.010;8.260;2022-10-20T10:21:57;27.23;;;14.03;;
26656;SDS011;14279;50.010;8.260;2022-10-20T10:24:29;34.17;;;13.80;;
26656;SDS011;14279;50.010;8.260;2022-10-20T10:27:02;24.90;;;13.60;;
26656;SDS011;14279;50.010;8.260;2022-10-20T10:37:39;32.87;;;13.97;;
26656;SDS011;14279;50.010;8.260;2022-10-20T10:40:10;22.67;;;13.23;;
26656;SDS011;14279;50.010;8.260;2022-10-20T10:51:12;21.13;;;13.33;;
26656;SDS011;14279;50.010;8.260;2022-10-20T10:59:21;25.47;;;14.93;;
26656;SDS011;14279;50.010;8.260;2022-10-20T11:04:53;23.57;;;12.97;;
26656;SDS011;14279;50.010;8.260;2022-10-20T11:07:44;17.87;;;12.87;;
26656;SDS011;14279;50.010;8.260;2022-10-20T11:10:21;21.47;;;13.33;;
26656;SDS011;14279;50.010;8.260;2022-10-20T11:13:51;19.33;;;14.67;;
26656;SDS011;14279;50.010;8.260;2022-10-20T11:15:57;30.40;;;15.27;;
26656;SDS011;14279;50.010;8.260;2022-10-20T11:22:04;19.73;;;14.43;;
26656;SDS011;14279;50.010;8.260;2022-10-20T11:24:42;19.13;;;13.67;;
26656;SDS011;14279;50.010;8.260;2022-10-20T11:27:15;31.10;;;16.70;;
26656;SDS011;14279;50.010;8.260;2022-10-20T11:29:48;34.70;;;19.20;;
26656;SDS011;14279;50.010;8.260;2022-10-20T11:32:41;35.60;;;20.80;;
26656;SDS011;14279;50.010;8.260;2022-10-20T11:35:13;22.93;;;15.30;;
26656;SDS011;14279;50.010;8.260;2022-10-20T11:37:55;32.90;;;20.57;;
26656;SDS011;14279;50.010;8.260;2022-10-20T11:40:36;32.70;;;20.43;;
26656;SDS011;14279;50.010;8.260;2022-10-20T11:48:58;24.93;;;14.10;;
26656;SDS011;14279;50.010;8.260;2022-10-20T12:08:22;22.03;;;15.20;;
26656;SDS011;14279;50.010;8.260;2022-10-20T12:13:36;29.80;;;14.17;;
26656;SDS011;14279;50.010;8.260;2022-10-20T12:16:09;20.93;;;14.07;;
26656;SDS011;14279;50.010;8.260;2022-10-20T12:18:34;19.90;;;15.50;;
26656;SDS011;14279;50.010;8.260;2022-10-20T12:21:09;25.17;;;15.20;;
26656;SDS011;14279;50.010;8.260;2022-10-20T12:28:53;19.10;;;15.00;;
26656;SDS011;14279;50.010;8.260;2022-10-20T12:31:22;25.47;;;15.37;;
26656;SDS011;14279;50.010;8.260;2022-10-20T12:38:40;20.67;;;14.63;;
26656;SDS011;14279;50.010;8.260;2022-10-20T12:41:08;26.40;;;15.03;;
26656;SDS011;14279;50.010;8.260;2022-10-20T12:43:52;30.47;;;16.07;;
26656;SDS011;14279;50.010;8.260;2022-10-20T12:46:25;25.33;;;15.20;;
26656;SDS011;14279;50.010;8.260;2022-10-20T12:48:54;21.77;;;14.90;;
26656;SDS011;14279;50.010;8.260;2022-10-20T12:51:32;24.57;;;16.23;;
26656;SDS011;14279;50.010;8.260;2022-10-20T12:54:01;30.53;;;15.63;;
26656;SDS011;14279;50.010;8.260;2022-10-20T12:56:32;25.60;;;14.57;;
26656;SDS011;14279;50.010;8.260;2022-10-20T13:15:33;35.43;;;17.30;;
26656;SDS011;14279;50.010;8.260;2022-10-20T13:23:18;25.50;;;15.53;;
26656;SDS011;14279;50.010;8.260;2022-10-20T13:25:55;27.57;;;17.50;;
26656;SDS011;14279;50.010;8.260;2022-10-20T13:28:23;25.07;;;17.43;;
26656;SDS011;14279;50.010;8.260;2022-10-20T13:33:28;28.30;;;17.47;;
26656;SDS011;14279;50.010;8.260;2022-10-20T13:36:04;34.27;;;17.37;;
26656;SDS011;14279;50.010;8.260;2022-10-20T13:45:04;32.90;;;17.60;;
26656;SDS011;14279;50.010;8.260;2022-10-20T13:50:01;31.37;;;17.47;;
26656;SDS011;14279;50.010;8.260;2022-10-20T13:52:34;28.90;;;18.60;;
26656;SDS011;14279;50.010;8.260;2022-10-20T13:55:05;35.73;;;18.43;;
26656;SDS011;14279;50.010;8.260;2022-10-20T13:57:32;36.50;;;20.70;;
26656;SDS011;14279;50.010;8.260;2022-10-20T14:00:21;29.90;;;20.33;;
26656;SDS011;14279;50.010;8.260;2022-10-20T14:02:53;29.23;;;20.53;;
26656;SDS011;14279;50.010;8.260;2022-10-20T14:05:20;29.10;;;19.57;;
26656;SDS011;14279;50.010;8.260;2022-10-20T14:07:47;32.53;;;21.17;;
26656;SDS011;14279;50.010;8.260;2022-10-20T14:12:47;37.93;;;21.70;;
26656;SDS011;14279;50.010;8.260;2022-10-20T14:15:13;35.23;;;20.00;;
26656;SDS011;14279;50.010;8.260;2022-10-20T14:17:53;32.10;;;22.33;;
26656;SDS011;14279;50.010;8.260;2022-10-20T14:20:23;32.20;;;21.10;;
26656;SDS011;14279;50.010;8.260;2022-10-20T14:22:49;34.63;;;22.90;;
26656;SDS011;14279;50.010;8.260;2022-10-20T14:25:17;37.60;;;21.73;;
26656;SDS011;14279;50.010;8.260;2022-10-20T14:27:43;35.20;;;22.30;;
26656;SDS011;14279;50.010;8.260;2022-10-20T14:30:18;35.73;;;22.83;;
26656;SDS011;14279;50.010;8.260;2022-10-20T14:32:44;34.67;;;21.70;;
26656;SDS011;14279;50.010;8.260;2022-10-20T14:37:50;33.37;;;22.17;;
26656;SDS011;14279;50.010;8.260;2022-10-20T14:40:27;35.33;;;22.10;;
26656;SDS011;14279;50.010;8.260;2022-10-20T14:42:57;37.47;;;22.90;;
26656;SDS011;14279;50.010;8.260;2022-10-20T14:45:30;42.57;;;24.90;;
26656;SDS011;14279;50.010;8.260;2022-10-20T14:47:56;42.23;;;25.83;;
26656;SDS011;14279;50.010;8.260;2022-10-20T14:50:24;36.40;;;24.73;;
26656;SDS011;14279;50.010;8.260;2022-10-20T14:52:50;36.87;;;25.40;;
26656;SDS011;14279;50.010;8.260;2022-10-20T14:55:26;42.93;;;25.67;;
26656;SDS011;14279;50.010;8.260;2022-10-20T14:57:54;39.37;;;23.67;;
26656;SDS011;14279;50.010;8.260;2022-10-20T15:00:24;39.40;;;25.80;;
26656;SDS011;14279;50.010;8.260;2022-10-20T15:02:50;36.90;;;26.27;;
26656;SDS011;14279;50.010;8.260;2022-10-20T15:07:57;47.90;;;28.53;;
26656;SDS011;14279;50.010;8.260;2022-10-20T15:10:23;42.93;;;28.80;;
26656;SDS011;14279;50.010;8.260;2022-10-20T15:12:50;40.13;;;27.20;;
26656;SDS011;14279;50.010;8.260;2022-10-20T15:17:48;47.43;;;29.37;;
26656;SDS011;14279;50.010;8.260;2022-10-20T15:25:40;39.27;;;25.90;;
26656;SDS011;14279;50.010;8.260;2022-10-20T15:28:10;45.90;;;27.53;;
26656;SDS011;14279;50.010;8.260;2022-10-20T15:30:46;39.00;;;26.47;;
26656;SDS011;14279;50.010;8.260;2022-10-20T15:33:11;45.10;;;29.20;;
26656;SDS011;14279;50.010;8.260;2022-10-20T15:35:37;40.10;;;27.10;;
26656;SDS011;14279;50.010;8.260;2022-10-20T15:38:08;46.07;;;26.33;;
26656;SDS011;14279;50.010;8.260;2022-10-20T15:40:34;36.77;;;26.00;;
26656;SDS011;14279;50.010;8.260;2022-10-20T15:42:59;47.03;;;25.93;;
26656;SDS011;14279;50.010;8.260;2022-10-20T15:45:32;41.83;;;25.93;;
26656;SDS011;14279;50.010;8.260;2022-10-20T15:48:01;33.93;;;24.70;;
26656;SDS011;14279;50.010;8.260;2022-10-20T15:50:26;32.60;;;22.47;;
26656;SDS011;14279;50.010;8.260;2022-10-20T15:52:52;46.93;;;25.63;;
26656;SDS011;14279;50.010;8.260;2022-10-20T15:55:23;36.10;;;24.67;;
26656;SDS011;14279;50.010;8.260;2022-10-20T15:57:54;38.07;;;24.33;;
26656;SDS011;14279;50.010;8.260;2022-10-20T16:00:20;34.93;;;23.47;;
26656;SDS011;14279;50.010;8.260;2022-10-20T16:02:48;40.33;;;24.00;;
26656;SDS011;14279;50.010;8.260;2022-10-20T16:05:13;35.97;;;24.07;;
26656;SDS011;14279;50.010;8.260;2022-10-20T16:07:40;43.43;;;24.20;;
26656;SDS011;14279;50.010;8.260;2022-10-20T16:10:06;47.23;;;24.73;;
26656;SDS011;14279;50.010;8.260;2022-10-20T16:12:33;37.67;;;24.10;;
26656;SDS011;14279;50.010;8.260;2022-10-20T16:14:58;33.33;;;24.00;;
26656;SDS011;14279;50.010;8.260;2022-10-20T16:17:24;42.50;;;23.70;;
26656;SDS011;14279;50.010;8.260;2022-10-20T16:19:49;38.20;;;24.47;;
26656;SDS011;14279;50.010;8.260;2022-10-20T16:22:15;31.70;;;22.37;;
26656;SDS011;14279;50.010;8.260;2022-10-20T16:24:40;31.53;;;23.70;;
26656;SDS011;14279;50.010;8.260;2022-10-20T16:27:05;37.87;;;24.33;;
26656;SDS011;14279;50.010;8.260;2022-10-20T16:29:31;33.90;;;24.10;;
26656;SDS011;14279;50.010;8.260;2022-10-20T16:31:57;35.00;;;22.70;;
26656;SDS011;14279;50.010;8.260;2022-10-20T16:34:22;35.33;;;23.53;;
26656;SDS011;14279;50.010;8.260;2022-10-20T16:36:49;36.60;;;24.53;;
26656;SDS011;14279;50.010;8.260;2022-10-20T16:39:15;43.97;;;24.67;;
26656;SDS011;14279;50.010;8.260;2022-10-20T16:41:41;43.43;;;23.50;;
26656;SDS011;14279;50.010;8.260;2022-10-20T16:44:07;33.23;;;22.03;;
26656;SDS011;14279;50.010;8.260;2022-10-20T16:46:32;35.90;;;24.13;;
26656;SDS011;14279;50.010;8.260;2022-10-20T16:48:57;35.03;;;24.43;;
26656;SDS011;14279;50.010;8.260;2022-10-20T16:51:23;35.40;;;24.50;;
26656;SDS011;14279;50.010;8.260;2022-10-20T16:53:48;33.33;;;24.63;;
26656;SDS011;14279;50.010;8.260;2022-10-20T16:56:13;34.37;;;23.73;;
26656;SDS011;14279;50.010;8.260;2022-10-20T16:58:39;35.10;;;23.73;;
26656;SDS011;14279;50.010;8.260;2022-10-20T17:01:05;48.80;;;24.47;;
26656;SDS011;14279;50.010;8.260;2022-10-20T17:03:33;37.77;;;25.07;;
26656;SDS011;14279;50.010;8.260;2022-10-20T17:06:00;38.87;;;25.37;;
26656;SDS011;14279;50.010;8.260;2022-10-20T17:08:27;31.20;;;22.70;;
26656;SDS011;14279;50.010;8.260;2022-10-20T17:10:55;41.93;;;25.60;;
26656;SDS011;14279;50.010;8.260;2022-10-20T17:13:25;41.77;;;23.40;;